createdAt,value
2019-06-10T00:00:34.496Z,1004.39
2019-06-10T00:01:34.497Z,1004.36
2019-06-10T00:02:34.440Z,1004.39
2019-06-10T00:03:34.424Z,1004.36
2019-06-10T00:04:34.410Z,1004.38
2019-06-10T00:05:34.438Z,1004.44
2019-06-10T00:06:34.407Z,1004.47
2019-06-10T00:07:41.100Z,1004.44
2019-06-10T00:08:34.386Z,1004.47
2019-06-10T00:09:34.349Z,1004.45
2019-06-10T00:10:34.379Z,1004.44
2019-06-10T00:11:34.363Z,1004.40
2019-06-10T00:12:34.357Z,1004.38
2019-06-10T00:13:34.310Z,1004.38
2019-06-10T00:14:34.299Z,1004.43
2019-06-10T00:15:34.308Z,1004.50
2019-06-10T00:16:34.280Z,1004.51
2019-06-10T00:17:34.264Z,1004.51
2019-06-10T00:18:42.971Z,1004.48
2019-06-10T00:19:35.246Z,1004.45
2019-06-10T00:20:34.239Z,1004.50
2019-06-10T00:21:34.222Z,1004.49
2019-06-10T00:22:34.206Z,1004.46
2019-06-10T00:23:34.196Z,1004.53
2019-06-10T00:24:34.185Z,1004.53
2019-06-10T00:25:34.182Z,1004.50
2019-06-10T00:26:34.162Z,1004.52
2019-06-10T00:27:34.156Z,1004.48
2019-06-10T00:28:34.141Z,1004.38
2019-06-10T00:29:40.892Z,1004.45
2019-06-10T00:30:34.132Z,1004.41
2019-06-10T00:31:34.106Z,1004.32
2019-06-10T00:32:34.093Z,1004.34
2019-06-10T00:33:34.084Z,1004.31
2019-06-10T00:34:35.110Z,1004.29
2019-06-10T00:35:34.078Z,1004.27
2019-06-10T00:36:34.052Z,1004.22
2019-06-10T00:37:34.035Z,1004.21
2019-06-10T00:38:34.029Z,1004.21
2019-06-10T00:39:34.032Z,1004.15
2019-06-10T00:40:41.616Z,1004.21
2019-06-10T00:41:34.009Z,1004.17
2019-06-10T00:42:33.983Z,1004.17
2019-06-10T00:43:33.971Z,1004.21
2019-06-10T00:44:33.957Z,1004.11
2019-06-10T00:45:33.969Z,1004.08
2019-06-10T00:46:33.963Z,1004.20
2019-06-10T00:47:33.938Z,1004.20
2019-06-10T00:48:33.913Z,1004.23
2019-06-10T00:49:33.957Z,1004.10
2019-06-10T00:50:33.894Z,1004.09
2019-06-10T00:51:41.311Z,1004.11
2019-06-10T00:52:33.886Z,1004.03
2019-06-10T00:53:33.860Z,1004.11
2019-06-10T00:54:33.847Z,1004.21
2019-06-10T00:55:33.839Z,1004.17
2019-06-10T00:56:33.846Z,1004.27
2019-06-10T00:57:33.820Z,1004.27
2019-06-10T00:58:33.817Z,1004.31
2019-06-10T00:59:33.790Z,1004.30
2019-06-10T01:00:33.783Z,1004.30
2019-06-10T01:01:33.782Z,1004.30
2019-06-10T01:02:41.082Z,1004.21
2019-06-10T01:03:33.758Z,1004.24
2019-06-10T01:04:33.746Z,1004.16
2019-06-10T01:05:33.725Z,1004.27
2019-06-10T01:06:33.731Z,1004.26
2019-06-10T01:07:33.705Z,1004.24
2019-06-10T01:08:33.710Z,1004.26
2019-06-10T01:09:33.727Z,1004.21
2019-06-10T01:10:33.749Z,1004.17
2019-06-10T01:11:33.667Z,1004.22
2019-06-10T01:12:33.651Z,1004.19
2019-06-10T01:13:38.660Z,1004.18
2019-06-10T01:14:33.645Z,1004.18
2019-06-10T01:15:33.624Z,1004.14
2019-06-10T01:16:33.882Z,1004.08
2019-06-10T01:17:33.606Z,1004.04
2019-06-10T01:18:38.373Z,1004.03
2019-06-10T01:19:34.584Z,1004.03
2019-06-10T01:20:33.586Z,1003.98
2019-06-10T01:21:33.549Z,1003.98
2019-06-10T01:22:33.548Z,1003.97
2019-06-10T01:23:33.525Z,1003.94
2019-06-10T01:24:40.727Z,1003.94
2019-06-10T01:25:33.508Z,1004.01
2019-06-10T01:26:33.497Z,1003.99
2019-06-10T01:27:33.497Z,1003.97
2019-06-10T01:28:33.466Z,1004.01
2019-06-10T01:29:33.469Z,1004.00
2019-06-10T01:30:33.446Z,1004.03
2019-06-10T01:31:33.438Z,1004.06
2019-06-10T01:32:33.445Z,1004.05
2019-06-10T01:33:33.409Z,1004.01
2019-06-10T01:34:33.413Z,1004.01
2019-06-10T01:35:38.425Z,1004.00
2019-06-10T01:36:33.396Z,1003.93
2019-06-10T01:37:33.402Z,1003.93
2019-06-10T01:38:33.377Z,1003.95
2019-06-10T01:39:33.346Z,1003.89
2019-06-10T01:40:33.358Z,1003.87
2019-06-10T01:41:33.327Z,1003.81
2019-06-10T01:42:33.326Z,1003.74
2019-06-10T01:43:33.310Z,1003.73
2019-06-10T01:44:33.298Z,1003.70
2019-06-10T01:45:33.283Z,1003.66
2019-06-10T01:46:38.308Z,1003.64
2019-06-10T01:47:33.285Z,1003.60
2019-06-10T01:48:44.175Z,1003.56
2019-06-10T01:49:34.230Z,1003.54
2019-06-10T01:50:33.235Z,1003.58
2019-06-10T01:51:33.211Z,1003.62
2019-06-10T01:52:33.216Z,1003.62
2019-06-10T01:53:33.195Z,1003.59
2019-06-10T01:54:33.180Z,1003.62
2019-06-10T01:55:33.187Z,1003.60
2019-06-10T01:56:33.153Z,1003.62
2019-06-10T01:57:38.184Z,1003.61
2019-06-10T01:58:33.133Z,1003.61
2019-06-10T01:59:33.129Z,1003.66
2019-06-10T02:00:33.129Z,1003.65
2019-06-10T02:01:33.104Z,1003.71
2019-06-10T02:02:35.185Z,1003.74
2019-06-10T02:03:33.083Z,1003.79
2019-06-10T02:04:33.078Z,1003.85
2019-06-10T02:05:33.106Z,1003.89
2019-06-10T02:06:33.087Z,1003.97
2019-06-10T02:07:33.071Z,1003.97
2019-06-10T02:08:38.043Z,1003.97
2019-06-10T02:09:33.017Z,1004.07
2019-06-10T02:10:33.016Z,1004.08
2019-06-10T02:11:33.011Z,1004.08
2019-06-10T02:12:32.984Z,1004.07
2019-06-10T02:13:33.586Z,1004.08
2019-06-10T02:14:32.954Z,1004.04
2019-06-10T02:15:32.951Z,1004.03
2019-06-10T02:16:32.940Z,1004.00
2019-06-10T02:17:32.943Z,1004.02
2019-06-10T02:18:32.934Z,1003.89
2019-06-10T02:19:37.923Z,1003.98
2019-06-10T02:20:32.916Z,1003.92
2019-06-10T02:21:32.879Z,1003.91
2019-06-10T02:22:32.881Z,1003.90
2019-06-10T02:23:32.886Z,1003.89
2019-06-10T02:24:32.843Z,1003.84
2019-06-10T02:25:32.830Z,1003.86
2019-06-10T02:26:32.821Z,1003.78
2019-06-10T02:27:32.828Z,1003.78
2019-06-10T02:28:32.821Z,1003.84
2019-06-10T02:29:32.842Z,1003.88
2019-06-10T02:30:46.165Z,1003.94
2019-06-10T02:31:37.484Z,1004.01
2019-06-10T02:32:37.428Z,1003.98
2019-06-10T02:33:36.380Z,1004.01
2019-06-10T02:34:36.717Z,1003.99
2019-06-10T02:35:43.329Z,1003.98
2019-06-10T02:36:36.953Z,1003.98
2019-06-10T02:37:37.946Z,1003.88
2019-06-10T02:38:39.266Z,1003.93
2019-06-10T02:39:38.456Z,1003.89
2019-06-10T02:40:36.524Z,1004.04
2019-06-10T02:41:37.690Z,1004.01
2019-06-10T02:42:35.877Z,1004.07
2019-06-10T02:43:37.231Z,1004.17
2019-06-10T02:44:37.518Z,1004.20
2019-06-10T02:45:37.385Z,1004.21
2019-06-10T02:46:36.299Z,1004.20
2019-06-10T02:47:37.547Z,1004.18
2019-06-10T02:48:34.949Z,1004.17
2019-06-10T02:49:50.631Z,1004.15
2019-06-10T02:50:36.456Z,1004.24
2019-06-10T02:51:35.612Z,1004.15
2019-06-10T02:52:38.715Z,1004.12
2019-06-10T02:53:35.885Z,1004.14
2019-06-10T02:54:35.796Z,1004.07
2019-06-10T02:55:35.128Z,1004.11
2019-06-10T02:56:36.421Z,1004.12
2019-06-10T02:57:39.045Z,1004.13
2019-06-10T02:58:38.999Z,1004.06
2019-06-10T02:59:36.339Z,1004.02
2019-06-10T03:00:39.607Z,1003.99
2019-06-10T03:01:37.850Z,1003.92
2019-06-10T03:02:36.222Z,1003.92
2019-06-10T03:03:44.139Z,1003.92
2019-06-10T03:04:37.672Z,1003.91
2019-06-10T03:05:40.483Z,1003.91
2019-06-10T03:06:39.368Z,1003.76
2019-06-10T03:07:35.600Z,1003.82
2019-06-10T03:08:35.935Z,1003.80
2019-06-10T03:09:35.593Z,1003.74
2019-06-10T03:10:36.646Z,1003.73
2019-06-10T03:11:36.970Z,1003.69
2019-06-10T03:12:33.307Z,1003.78
2019-06-10T03:13:33.193Z,1003.69
2019-06-10T03:14:37.337Z,1003.68
2019-06-10T03:15:32.284Z,1003.73
2019-06-10T03:16:32.996Z,1003.68
2019-06-10T03:17:32.408Z,1003.63
2019-06-10T03:18:32.853Z,1003.64
2019-06-10T03:19:46.526Z,1003.59
2019-06-10T03:20:33.227Z,1003.58
2019-06-10T03:21:32.468Z,1003.56
2019-06-10T03:22:32.776Z,1003.46
2019-06-10T03:23:32.230Z,1003.46
2019-06-10T03:24:32.791Z,1003.50
2019-06-10T03:25:37.210Z,1003.52
2019-06-10T03:26:32.444Z,1003.48
2019-06-10T03:27:32.847Z,1003.51
2019-06-10T03:28:32.315Z,1003.44
2019-06-10T03:29:32.774Z,1003.35
2019-06-10T03:30:46.696Z,1003.25
2019-06-10T03:31:40.411Z,1003.19
2019-06-10T03:32:40.376Z,1003.15
2019-06-10T03:33:41.113Z,1003.14
2019-06-10T03:34:40.468Z,1003.14
2019-06-10T03:35:33.145Z,1003.27
2019-06-10T03:36:37.082Z,1003.33
2019-06-10T03:37:32.903Z,1003.35
2019-06-10T03:38:32.645Z,1003.31
2019-06-10T03:39:32.288Z,1003.15
2019-06-10T03:40:32.774Z,1003.15
2019-06-10T03:41:32.419Z,1003.02
2019-06-10T03:42:32.466Z,1003.01
2019-06-10T03:43:32.916Z,1003.10
2019-06-10T03:44:33.073Z,1003.10
2019-06-10T03:45:32.408Z,1003.07
2019-06-10T03:46:32.859Z,1003.03
2019-06-10T03:47:36.950Z,1003.07
2019-06-10T03:48:32.892Z,1003.09
2019-06-10T03:49:32.230Z,1003.13
2019-06-10T03:50:32.488Z,1003.01
2019-06-10T03:51:33.339Z,1002.98
2019-06-10T03:52:32.468Z,1002.96
2019-06-10T03:53:33.757Z,1002.96
2019-06-10T03:54:32.575Z,1002.87
2019-06-10T03:55:33.074Z,1002.94
2019-06-10T03:56:32.387Z,1002.94
2019-06-10T03:57:33.071Z,1002.91
2019-06-10T03:58:36.825Z,1002.90
2019-06-10T03:59:32.405Z,1002.88
2019-06-10T04:00:32.713Z,1002.76
2019-06-10T04:01:33.328Z,1002.74
2019-06-10T04:02:32.669Z,1002.77
2019-06-10T04:03:33.928Z,1002.78
2019-06-10T04:04:32.794Z,1002.82
2019-06-10T04:05:33.136Z,1002.80
2019-06-10T04:06:33.681Z,1002.89
2019-06-10T04:07:34.147Z,1002.94
2019-06-10T04:08:32.849Z,1002.89
2019-06-10T04:09:36.725Z,1003.02
2019-06-10T04:10:32.485Z,1003.06
2019-06-10T04:11:34.935Z,1003.11
2019-06-10T04:12:32.735Z,1003.08
2019-06-10T04:13:33.730Z,1002.95
2019-06-10T04:14:32.747Z,1002.86
2019-06-10T04:15:32.598Z,1002.74
2019-06-10T04:16:32.753Z,1002.79
2019-06-10T04:17:33.336Z,1002.74
2019-06-10T04:18:32.794Z,1002.74
2019-06-10T04:19:32.719Z,1002.65
2019-06-10T04:20:36.607Z,1002.67
2019-06-10T04:21:32.647Z,1002.70
2019-06-10T04:22:32.969Z,1002.70
2019-06-10T04:23:33.517Z,1002.66
2019-06-10T04:24:32.687Z,1002.69
2019-06-10T04:25:32.378Z,1002.69
2019-06-10T04:26:32.785Z,1002.76
2019-06-10T04:27:32.837Z,1002.80
2019-06-10T04:28:33.733Z,1002.88
2019-06-10T04:29:32.915Z,1002.84
2019-06-10T04:30:32.512Z,1002.87
2019-06-10T04:31:36.463Z,1002.80
2019-06-10T04:32:32.272Z,1002.80
2019-06-10T04:33:32.857Z,1002.80
2019-06-10T04:34:33.308Z,1002.81
2019-06-10T04:35:33.539Z,1002.87
2019-06-10T04:36:33.345Z,1002.79
2019-06-10T04:37:32.525Z,1002.88
2019-06-10T04:38:32.706Z,1002.88
2019-06-10T04:39:33.742Z,1002.97
2019-06-10T04:40:32.946Z,1003.00
2019-06-10T04:41:32.469Z,1003.03
2019-06-10T04:42:36.353Z,1003.04
2019-06-10T04:43:32.519Z,1003.08
2019-06-10T04:44:32.968Z,1003.20
2019-06-10T04:45:32.426Z,1003.22
2019-06-10T04:46:32.458Z,1003.23
2019-06-10T04:47:33.319Z,1003.25
2019-06-10T04:48:32.684Z,1003.28
2019-06-10T04:49:32.735Z,1003.29
2019-06-10T04:50:41.588Z,1003.32
2019-06-10T04:51:32.897Z,1003.25
2019-06-10T04:52:32.905Z,1003.22
2019-06-10T04:53:36.209Z,1003.24
2019-06-10T04:54:33.254Z,1003.22
2019-06-10T04:55:32.629Z,1003.27
2019-06-10T04:56:33.426Z,1003.20
2019-06-10T04:57:32.809Z,1003.23
2019-06-10T04:58:33.458Z,1003.15
2019-06-10T04:59:33.647Z,1003.15
2019-06-10T05:00:33.101Z,1003.13
2019-06-10T05:01:33.303Z,1003.18
2019-06-10T05:02:33.046Z,1003.20
2019-06-10T05:03:32.882Z,1003.25
2019-06-10T05:04:36.083Z,1003.34
2019-06-10T05:05:32.759Z,1003.42
2019-06-10T05:06:32.750Z,1003.36
2019-06-10T05:07:35.995Z,1003.43
2019-06-10T05:08:33.782Z,1003.43
2019-06-10T05:09:33.336Z,1003.43
2019-06-10T05:10:33.135Z,1003.54
2019-06-10T05:11:33.135Z,1003.49
2019-06-10T05:12:32.805Z,1003.53
2019-06-10T05:13:33.274Z,1003.56
2019-06-10T05:14:33.308Z,1003.55
2019-06-10T05:15:35.963Z,1003.49
2019-06-10T05:16:35.380Z,1003.54
2019-06-10T05:17:34.039Z,1003.56
2019-06-10T05:18:33.004Z,1003.63
2019-06-10T05:19:33.568Z,1003.63
2019-06-10T05:20:46.810Z,1003.68
2019-06-10T05:21:33.721Z,1003.67
2019-06-10T05:22:32.793Z,1003.67
2019-06-10T05:23:32.900Z,1003.70
2019-06-10T05:24:34.221Z,1003.68
2019-06-10T05:25:32.742Z,1003.69
2019-06-10T05:26:35.837Z,1003.70
2019-06-10T05:27:33.095Z,1003.68
2019-06-10T05:28:30.799Z,1003.72
2019-06-10T05:29:31.245Z,1003.70
2019-06-10T05:30:31.780Z,1003.71
2019-06-10T05:31:34.653Z,1003.69
2019-06-10T05:32:33.285Z,1003.58
2019-06-10T05:33:33.218Z,1003.62
2019-06-10T05:34:34.382Z,1003.58
2019-06-10T05:35:31.603Z,1003.62
2019-06-10T05:36:34.374Z,1003.51
2019-06-10T05:37:35.729Z,1003.71
2019-06-10T05:38:34.925Z,1003.75
2019-06-10T05:39:32.406Z,1003.74
2019-06-10T05:40:33.782Z,1003.80
2019-06-10T05:41:34.847Z,1003.77
2019-06-10T05:42:33.602Z,1003.81
2019-06-10T05:43:34.321Z,1003.82
2019-06-10T05:44:33.132Z,1003.80
2019-06-10T05:45:30.617Z,1003.76
2019-06-10T05:46:33.380Z,1003.78
2019-06-10T05:47:31.521Z,1003.82
2019-06-10T05:48:35.596Z,1003.73
2019-06-10T05:49:33.776Z,1003.77
2019-06-10T05:50:33.578Z,1003.84
2019-06-10T05:51:32.964Z,1003.77
2019-06-10T05:52:31.443Z,1003.77
2019-06-10T05:53:31.531Z,1003.74
2019-06-10T05:54:33.284Z,1003.71
2019-06-10T05:55:33.468Z,1003.76
2019-06-10T05:56:33.488Z,1003.70
2019-06-10T05:57:33.506Z,1003.71
2019-06-10T05:58:32.860Z,1003.66
2019-06-10T05:59:36.467Z,1003.70
2019-06-10T06:00:33.397Z,1003.67
2019-06-10T06:01:32.362Z,1003.65
2019-06-10T06:02:33.968Z,1003.66
2019-06-10T06:03:33.430Z,1003.59
2019-06-10T06:04:33.043Z,1003.54
2019-06-10T06:05:32.901Z,1003.57
2019-06-10T06:06:33.398Z,1003.48
2019-06-10T06:07:31.760Z,1003.42
2019-06-10T06:08:33.369Z,1003.49
2019-06-10T06:09:33.495Z,1003.46
2019-06-10T06:10:36.051Z,1003.48
2019-06-10T06:11:33.422Z,1003.53
2019-06-10T06:12:33.524Z,1003.53
2019-06-10T06:13:32.713Z,1003.61
2019-06-10T06:14:31.633Z,1003.61
2019-06-10T06:15:32.935Z,1003.56
2019-06-10T06:16:32.611Z,1003.59
2019-06-10T06:17:32.402Z,1003.56
2019-06-10T06:18:30.286Z,1003.55
2019-06-10T06:19:33.107Z,1003.61
2019-06-10T06:20:31.960Z,1003.58
2019-06-10T06:21:42.088Z,1003.53
2019-06-10T06:22:33.739Z,1003.49
2019-06-10T06:23:31.254Z,1003.39
2019-06-10T06:24:32.746Z,1003.29
2019-06-10T06:25:35.987Z,1003.32
2019-06-10T06:26:36.518Z,1003.34
2019-06-10T06:27:33.402Z,1003.39
2019-06-10T06:28:32.915Z,1003.37
2019-06-10T06:29:31.464Z,1003.42
2019-06-10T06:30:30.238Z,1003.41
2019-06-10T06:31:30.837Z,1003.43
2019-06-10T06:32:36.424Z,1003.48
2019-06-10T06:33:32.773Z,1003.58
2019-06-10T06:34:35.101Z,1003.57
2019-06-10T06:35:31.308Z,1003.53
2019-06-10T06:36:31.237Z,1003.53
2019-06-10T06:37:34.661Z,1003.47
2019-06-10T06:38:33.507Z,1003.45
2019-06-10T06:39:32.251Z,1003.48
2019-06-10T06:40:32.741Z,1003.48
2019-06-10T06:41:29.989Z,1003.54
2019-06-10T06:42:32.353Z,1003.47
2019-06-10T06:43:40.046Z,1003.57
2019-06-10T06:44:33.089Z,1003.59
2019-06-10T06:45:29.936Z,1003.53
2019-06-10T06:46:32.518Z,1003.61
2019-06-10T06:47:32.795Z,1003.64
2019-06-10T06:48:30.013Z,1003.60
2019-06-10T06:49:32.444Z,1003.63
2019-06-10T06:50:30.824Z,1003.69
2019-06-10T06:51:40.101Z,1003.71
2019-06-10T06:52:56.742Z,1003.73
2019-06-10T06:53:39.510Z,1003.69
2019-06-10T06:54:36.569Z,1003.59
2019-06-10T06:55:31.255Z,1003.66
2019-06-10T06:56:32.615Z,1003.63
2019-06-10T06:57:33.715Z,1003.60
2019-06-10T06:58:32.291Z,1003.57
2019-06-10T06:59:29.801Z,1003.64
2019-06-10T07:00:43.061Z,1003.54
2019-06-10T07:01:34.627Z,1003.58
2019-06-10T07:02:32.181Z,1003.62
2019-06-10T07:03:29.757Z,1003.60
2019-06-10T07:04:29.745Z,1003.49
2019-06-10T07:05:35.959Z,1003.49
2019-06-10T07:06:32.023Z,1003.53
2019-06-10T07:07:30.124Z,1003.51
2019-06-10T07:08:30.847Z,1003.58
2019-06-10T07:09:30.331Z,1003.48
2019-06-10T07:10:30.940Z,1003.49
2019-06-10T07:11:32.923Z,1003.55
2019-06-10T07:12:31.354Z,1003.49
2019-06-10T07:13:30.776Z,1003.43
2019-06-10T07:14:31.969Z,1003.45
2019-06-10T07:15:29.625Z,1003.44
2019-06-10T07:16:37.647Z,1003.51
2019-06-10T07:17:29.577Z,1003.52
2019-06-10T07:18:29.586Z,1003.50
2019-06-10T07:19:29.570Z,1003.51
2019-06-10T07:20:29.552Z,1003.51
2019-06-10T07:21:29.532Z,1003.41
2019-06-10T07:22:29.523Z,1003.51
2019-06-10T07:23:29.526Z,1003.43
2019-06-10T07:24:29.534Z,1003.37
2019-06-10T07:25:32.154Z,1003.41
2019-06-10T07:26:29.474Z,1003.40
2019-06-10T07:27:37.548Z,1003.37
2019-06-10T07:28:29.456Z,1003.32
2019-06-10T07:29:29.475Z,1003.38
2019-06-10T07:30:29.442Z,1003.39
2019-06-10T07:31:32.174Z,1003.38
2019-06-10T07:32:29.411Z,1003.37
2019-06-10T07:33:29.395Z,1003.51
2019-06-10T07:34:29.400Z,1003.52
2019-06-10T07:35:29.406Z,1003.51
2019-06-10T07:36:29.384Z,1003.53
2019-06-10T07:37:29.352Z,1003.44
2019-06-10T07:38:36.198Z,1003.41
2019-06-10T07:39:29.328Z,1003.41
2019-06-10T07:40:29.347Z,1003.39
2019-06-10T07:41:29.308Z,1003.40
2019-06-10T07:42:29.311Z,1003.41
2019-06-10T07:43:29.301Z,1003.42
2019-06-10T07:44:29.272Z,1003.43
2019-06-10T07:45:29.270Z,1003.33
2019-06-10T07:46:29.272Z,1003.33
2019-06-10T07:47:29.264Z,1003.28
2019-06-10T07:48:29.295Z,1003.27
2019-06-10T07:49:35.390Z,1003.26
2019-06-10T07:50:29.253Z,1003.19
2019-06-10T07:51:29.214Z,1003.19
2019-06-10T07:52:29.196Z,1003.21
2019-06-10T07:53:29.181Z,1003.19
2019-06-10T07:54:29.169Z,1003.29
2019-06-10T07:55:29.200Z,1003.31
2019-06-10T07:56:33.821Z,1003.32
2019-06-10T07:57:30.191Z,1003.32
2019-06-10T07:58:29.136Z,1003.37
2019-06-10T07:59:29.135Z,1003.35
2019-06-10T08:00:36.277Z,1003.36
2019-06-10T08:01:29.108Z,1003.34
2019-06-10T08:02:29.194Z,1003.32
2019-06-10T08:03:29.062Z,1003.36
2019-06-10T08:04:29.048Z,1003.31
2019-06-10T08:05:29.093Z,1003.28
2019-06-10T08:06:29.044Z,1003.30
2019-06-10T08:07:29.016Z,1003.25
2019-06-10T08:08:29.018Z,1003.28
2019-06-10T08:09:29.043Z,1003.25
2019-06-10T08:10:29.040Z,1003.24
2019-06-10T08:11:35.168Z,1003.20
2019-06-10T08:12:28.961Z,1003.24
2019-06-10T08:13:28.946Z,1003.28
2019-06-10T08:14:28.934Z,1003.32
2019-06-10T08:15:28.937Z,1003.17
2019-06-10T08:16:28.927Z,1003.24
2019-06-10T08:17:28.911Z,1003.24
2019-06-10T08:18:28.899Z,1003.21
2019-06-10T08:19:35.021Z,1003.17
2019-06-10T08:20:29.890Z,1003.08
2019-06-10T08:21:28.857Z,1003.20
2019-06-10T08:22:39.867Z,1003.23
2019-06-10T08:23:29.843Z,1003.17
2019-06-10T08:24:28.822Z,1003.23
2019-06-10T08:25:28.977Z,1003.23
2019-06-10T08:26:28.808Z,1003.25
2019-06-10T08:27:28.837Z,1003.20
2019-06-10T08:28:28.913Z,1003.22
2019-06-10T08:29:28.775Z,1003.28
2019-06-10T08:30:28.821Z,1003.29
2019-06-10T08:31:28.764Z,1003.21
2019-06-10T08:32:28.758Z,1003.16
2019-06-10T08:33:33.746Z,1003.17
2019-06-10T08:34:28.711Z,1003.15
2019-06-10T08:35:39.316Z,1003.15
2019-06-10T08:36:29.820Z,1003.20
2019-06-10T08:37:28.720Z,1003.20
2019-06-10T08:38:28.770Z,1003.21
2019-06-10T08:39:29.243Z,1003.25
2019-06-10T08:40:28.641Z,1003.29
2019-06-10T08:41:28.706Z,1003.28
2019-06-10T08:42:28.633Z,1003.27
2019-06-10T08:43:28.638Z,1003.30
2019-06-10T08:44:33.647Z,1003.26
2019-06-10T08:45:28.621Z,1003.32
2019-06-10T08:46:28.629Z,1003.23
2019-06-10T08:47:28.579Z,1003.21
2019-06-10T08:48:28.556Z,1003.11
2019-06-10T08:49:28.545Z,1003.03
2019-06-10T08:50:28.536Z,1003.06
2019-06-10T08:51:28.541Z,1003.06
2019-06-10T08:52:28.622Z,1003.06
2019-06-10T08:53:28.617Z,1003.06
2019-06-10T08:54:28.517Z,1003.10
2019-06-10T08:55:33.612Z,1003.08
2019-06-10T08:56:28.478Z,1003.08
2019-06-10T08:57:28.450Z,1003.08
2019-06-10T08:58:28.443Z,1003.06
2019-06-10T08:59:28.461Z,1003.10
2019-06-10T09:00:28.518Z,1003.07
2019-06-10T09:01:28.442Z,1003.16
2019-06-10T09:02:28.416Z,1003.15
2019-06-10T09:03:28.483Z,1003.15
2019-06-10T09:04:29.533Z,1003.11
2019-06-10T09:05:28.362Z,1003.18
2019-06-10T09:06:33.394Z,1003.15
2019-06-10T09:07:28.338Z,1003.19
2019-06-10T09:08:28.331Z,1003.19
2019-06-10T09:09:28.318Z,1003.18
2019-06-10T09:10:28.306Z,1003.22
2019-06-10T09:11:28.313Z,1003.16
2019-06-10T09:12:33.198Z,1003.24
2019-06-10T09:13:29.269Z,1003.21
2019-06-10T09:14:28.262Z,1003.09
2019-06-10T09:15:28.250Z,1003.11
2019-06-10T09:16:28.331Z,1002.95
2019-06-10T09:17:33.962Z,1002.92
2019-06-10T09:18:28.217Z,1002.78
2019-06-10T09:19:28.209Z,1002.72
2019-06-10T09:20:28.266Z,1002.72
2019-06-10T09:21:28.199Z,1002.67
2019-06-10T09:22:28.190Z,1002.72
2019-06-10T09:23:28.203Z,1002.71
2019-06-10T09:24:28.152Z,1002.74
2019-06-10T09:25:28.142Z,1002.63
2019-06-10T09:26:28.146Z,1002.63
2019-06-10T09:27:28.114Z,1002.63
2019-06-10T09:28:33.127Z,1002.65
2019-06-10T09:29:28.092Z,1002.70
2019-06-10T09:30:28.084Z,1002.70
2019-06-10T09:31:28.071Z,1002.67
2019-06-10T09:32:28.088Z,1002.58
2019-06-10T09:33:28.054Z,1002.55
2019-06-10T09:34:28.035Z,1002.53
2019-06-10T09:35:28.024Z,1002.51
2019-06-10T09:36:28.049Z,1002.49
2019-06-10T09:37:28.013Z,1002.42
2019-06-10T09:38:28.005Z,1002.41
2019-06-10T09:39:33.051Z,1002.43
2019-06-10T09:40:27.988Z,1002.41
2019-06-10T09:41:39.470Z,1002.44
2019-06-10T09:42:28.960Z,1002.40
2019-06-10T09:43:27.936Z,1002.44
2019-06-10T09:44:27.961Z,1002.40
2019-06-10T09:45:27.949Z,1002.36
2019-06-10T09:46:27.909Z,1002.40
2019-06-10T09:47:27.906Z,1002.40
2019-06-10T09:48:27.901Z,1002.39
2019-06-10T09:49:27.935Z,1002.41
2019-06-10T09:50:33.428Z,1002.39
2019-06-10T09:51:27.845Z,1002.41
2019-06-10T09:52:27.846Z,1002.38
2019-06-10T09:53:41.194Z,1002.37
2019-06-10T09:54:28.814Z,1002.33
2019-06-10T09:55:27.801Z,1002.22
2019-06-10T09:56:27.802Z,1002.09
2019-06-10T09:57:27.799Z,1002.04
2019-06-10T09:58:27.771Z,1002.10
2019-06-10T09:59:27.757Z,1002.13
2019-06-10T10:00:29.226Z,1002.20
2019-06-10T10:01:32.837Z,1002.19
2019-06-10T10:02:27.740Z,1002.21
2019-06-10T10:03:27.713Z,1002.17
2019-06-10T10:04:27.701Z,1002.22
2019-06-10T10:05:27.690Z,1002.26
2019-06-10T10:06:27.679Z,1002.22
2019-06-10T10:07:27.681Z,1002.32
2019-06-10T10:08:27.666Z,1002.20
2019-06-10T10:09:27.647Z,1002.25
2019-06-10T10:10:27.634Z,1002.21
2019-06-10T10:11:28.722Z,1002.30
2019-06-10T10:12:32.802Z,1002.36
2019-06-10T10:13:27.619Z,1002.36
2019-06-10T10:14:27.591Z,1002.38
2019-06-10T10:15:33.762Z,1002.39
2019-06-10T10:16:28.572Z,1002.37
2019-06-10T10:17:27.585Z,1002.36
2019-06-10T10:18:27.547Z,1002.45
2019-06-10T10:19:27.547Z,1002.46
2019-06-10T10:20:27.525Z,1002.42
2019-06-10T10:21:27.524Z,1002.33
2019-06-10T10:22:27.516Z,1002.42
2019-06-10T10:23:49.642Z,1002.43
2019-06-10T10:24:28.508Z,1002.37
2019-06-10T10:25:27.497Z,1002.34
2019-06-10T10:26:27.463Z,1002.25
2019-06-10T10:27:27.448Z,1002.15
2019-06-10T10:28:27.449Z,1002.18
2019-06-10T10:29:27.434Z,1002.14
2019-06-10T10:30:27.419Z,1002.11
2019-06-10T10:31:27.437Z,1002.01
2019-06-10T10:32:27.396Z,1002.08
2019-06-10T10:33:30.249Z,1002.01
2019-06-10T10:34:33.481Z,1002.09
2019-06-10T10:35:27.393Z,1002.05
2019-06-10T10:36:27.362Z,1002.07
2019-06-10T10:37:27.340Z,1002.01
2019-06-10T10:38:27.347Z,1002.02
2019-06-10T10:39:27.321Z,1001.94
2019-06-10T10:40:27.388Z,1002.00
2019-06-10T10:41:27.310Z,1001.93
2019-06-10T10:42:41.610Z,1001.94
2019-06-10T10:43:32.684Z,1001.99
2019-06-10T10:44:28.273Z,1001.89
2019-06-10T10:45:32.274Z,1001.96
2019-06-10T10:46:27.241Z,1002.02
2019-06-10T10:47:27.804Z,1001.97
2019-06-10T10:48:27.235Z,1001.98
2019-06-10T10:49:27.206Z,1002.00
2019-06-10T10:50:27.195Z,1002.02
2019-06-10T10:51:27.188Z,1002.00
2019-06-10T10:52:27.192Z,1001.95
2019-06-10T10:53:27.190Z,1001.91
2019-06-10T10:54:33.937Z,1001.84
2019-06-10T10:55:28.142Z,1001.86
2019-06-10T10:56:33.938Z,1001.81
2019-06-10T10:57:27.155Z,1001.75
2019-06-10T10:58:27.122Z,1001.70
2019-06-10T10:59:27.119Z,1001.68
2019-06-10T11:00:27.084Z,1001.70
2019-06-10T11:01:27.088Z,1001.65
2019-06-10T11:02:27.063Z,1001.66
2019-06-10T11:03:27.052Z,1001.58
2019-06-10T11:04:27.063Z,1001.46
2019-06-10T11:05:27.032Z,1001.35
2019-06-10T11:06:27.044Z,1001.16
2019-06-10T11:07:33.955Z,1001.01
2019-06-10T11:08:26.999Z,1000.78
2019-06-10T11:09:26.997Z,1000.59
2019-06-10T11:10:26.995Z,1000.39
2019-06-10T11:11:26.967Z,1000.25
2019-06-10T11:12:26.952Z,1000.13
2019-06-10T11:13:26.939Z,999.94
2019-06-10T11:14:26.939Z,1000.04
2019-06-10T11:15:26.936Z,999.98
2019-06-10T11:16:26.907Z,1000.02
2019-06-10T11:17:26.903Z,1000.19
2019-06-10T11:18:33.961Z,1000.35
2019-06-10T11:19:26.886Z,1000.52
2019-06-10T11:20:26.879Z,1000.64
2019-06-10T11:21:26.853Z,1000.95
2019-06-10T11:22:26.841Z,1001.12
2019-06-10T11:23:26.832Z,1001.66
2019-06-10T11:24:35.866Z,1001.42
2019-06-10T11:25:27.807Z,1001.43
2019-06-10T11:26:27.052Z,1001.49
2019-06-10T11:27:26.791Z,1001.46
2019-06-10T11:28:26.777Z,1001.39
2019-06-10T11:29:32.861Z,1001.50
2019-06-10T11:30:26.751Z,1001.45
2019-06-10T11:31:27.131Z,1001.51
2019-06-10T11:32:26.743Z,1001.57
2019-06-10T11:33:26.731Z,1001.50
2019-06-10T11:34:26.728Z,1001.55
2019-06-10T11:35:26.706Z,1001.51
2019-06-10T11:36:26.705Z,1001.57
2019-06-10T11:37:26.674Z,1001.56
2019-06-10T11:38:26.662Z,1001.68
2019-06-10T11:39:26.663Z,1001.82
2019-06-10T11:40:34.105Z,1002.06
2019-06-10T11:41:26.631Z,1001.93
2019-06-10T11:42:26.620Z,1002.01
2019-06-10T11:43:26.608Z,1001.86
2019-06-10T11:44:26.629Z,1001.95
2019-06-10T11:45:26.592Z,1001.92
2019-06-10T11:46:26.576Z,1001.94
2019-06-10T11:47:26.564Z,1001.86
2019-06-10T11:48:26.554Z,1001.85
2019-06-10T11:49:26.561Z,1001.67
2019-06-10T11:50:26.532Z,1001.72
2019-06-10T11:51:31.560Z,1001.61
2019-06-10T11:52:26.509Z,1001.67
2019-06-10T11:53:28.681Z,1001.64
2019-06-10T11:54:26.513Z,1001.64
2019-06-10T11:55:26.475Z,1001.59
2019-06-10T11:56:26.478Z,1001.54
2019-06-10T11:57:26.458Z,1001.47
2019-06-10T11:58:26.443Z,1001.50
2019-06-10T11:59:26.504Z,1001.53
2019-06-10T12:00:26.432Z,1001.41
2019-06-10T12:01:26.418Z,1001.34
2019-06-10T12:02:32.958Z,1001.49
2019-06-10T12:03:26.392Z,1001.40
2019-06-10T12:04:26.379Z,1001.25
2019-06-10T12:05:26.382Z,1001.24